Time;durP1;ratioP1;P1;durP2;ratioP2;P2;SDS_P1;SDS_P2;PMS_P1;PMS_P2;Temp;Humidity;BMP_temperature;BMP_pressure;BME280_temperature;BME280_humidity;BME280_pressure;Samples;Min_cycle;Max_cycle;Signal;HPM_P1;HPM_P2
2022/02/11 00:07:44;;;;;;;13.30;6.55;;;;;;;-139.48;100.00;61774.03;5013344;28;20049;-74
2022/02/11 00:10:28;;;;;;;9.10;6.32;;;;;;;-139.48;100.00;61774.03;4998185;28;20099;-74
2022/02/11 00:13:12;;;;;;;12.73;6.00;;;;;;;-139.48;100.00;61774.03;5012802;28;20064;-75
2022/02/11 00:15:56;;;;;;;;;;;;;;;-139.48;100.00;61774.03;4998480;28;20053;-74
2022/02/11 00:18:40;;;;;;;11.03;5.70;;;;;;;-139.48;100.00;61774.03;5012773;28;20293;-74
2022/02/11 00:21:24;;;;;;;13.05;6.43;;;;;;;-139.48;100.00;61774.03;5012882;28;20691;-74
2022/02/11 00:24:08;;;;;;;10.55;6.13;;;;;;;-139.48;100.00;61774.03;4998014;28;20103;-75
2022/02/11 00:27:20;;;;;;;10.98;5.78;;;;;;;-139.48;100.00;61774.03;4998007;28;20052;-74
2022/02/11 00:33:33;;;;;;;11.38;5.60;;;;;;;-139.48;100.00;61774.03;5000825;28;20469;-74
2022/02/11 00:36:10;;;;;;;10.27;6.05;;;;;;;-139.48;100.00;61774.03;5005233;28;20044;-74
2022/02/11 00:39:21;;;;;;;11.80;6.05;;;;;;;-139.48;100.00;61774.03;5002409;28;20052;-74
2022/02/11 01:03:01;;;;;;;9.73;5.72;;;;;;;-139.48;100.00;61774.03;5003906;28;20121;-74
2022/02/11 01:05:46;;;;;;;12.25;6.00;;;;;;;-139.48;100.00;61774.03;5002387;28;20133;-75
2022/02/11 01:08:30;;;;;;;9.18;5.80;;;;;;;-139.48;100.00;61774.03;5001512;28;20057;-74
2022/02/11 01:11:21;;;;;;;10.20;6.30;;;;;;;-139.48;100.00;61774.03;5015963;28;20145;-74
2022/02/11 01:14:06;;;;;;;10.77;5.75;;;;;;;-139.48;100.00;61774.03;5016396;28;20196;-74
2022/02/11 01:16:55;;;;;;;10.55;5.97;;;;;;;-139.48;100.00;61774.03;4987204;28;20508;-74
2022/02/11 01:52:15;;;;;;;27.20;5.82;;;;;;;-139.48;100.00;61774.03;5003274;28;20045;-75
2022/02/11 02:00:52;;;;;;;9.68;5.38;;;;;;;-139.48;100.00;61774.03;5000285;28;20132;-74
2022/02/11 02:15:06;;;;;;;9.68;5.68;;;;;;;-139.48;100.00;61774.03;5015070;28;20135;-74
2022/02/11 02:35:48;;;;;;;7.50;5.22;;;;;;;-139.48;100.00;61774.03;5014854;28;20125;-74
2022/02/11 03:00:27;;;;;;;8.82;4.85;;;;;;;-139.48;100.00;61774.03;5000766;28;20542;-74
2022/02/11 03:15:13;;;;;;;7.07;4.57;;;;;;;-139.48;100.00;61774.03;5013699;28;20433;-74
2022/02/11 05:00:33;;;;;;;2.35;0.80;;;;;;;-139.48;100.00;61774.03;5020164;28;20211;-73
2022/02/11 05:03:17;;;;;;;;;;;;;;;-139.48;100.00;61774.03;5017827;28;20072;-74
2022/02/11 05:06:01;;;;;;;1.20;1.00;;;;;;;-139.48;100.00;61774.03;5017397;28;19963;-74
2022/02/11 05:08:45;;;;;;;0.98;0.90;;;;;;;-139.48;100.00;61774.03;5016914;28;20297;-73
2022/02/11 05:11:30;;;;;;;1.17;1.00;;;;;;;-139.48;100.00;61774.03;5032591;28;20071;-73
2022/02/11 05:14:13;;;;;;;1.10;1.00;;;;;;;-139.48;100.00;61774.03;5017337;28;20159;-73
2022/02/11 05:16:57;;;;;;;1.58;1.45;;;;;;;-139.48;100.00;61774.03;5032012;28;20424;-73
2022/02/11 05:19:41;;;;;;;1.25;1.15;;;;;;;-139.48;100.00;61774.03;5003406;28;20055;-73
2022/02/11 05:22:25;;;;;;;;;;;;;;;-139.48;100.00;61774.03;5020865;28;20413;-73
2022/02/11 05:25:09;;;;;;;1.60;1.17;;;;;;;-139.48;100.00;61774.03;5035531;28;20315;-74
2022/02/11 05:27:53;;;;;;;7.22;1.60;;;;;;;-139.48;100.00;61774.03;5020713;28;20131;-72
2022/02/11 05:30:37;;;;;;;1.50;1.02;;;;;;;-139.48;100.00;61774.03;5020629;28;20060;-74
2022/02/11 05:33:22;;;;;;;2.30;1.02;;;;;;;-139.48;100.00;61774.03;5006584;28;20068;-73
2022/02/11 05:36:06;;;;;;;4.18;1.30;;;;;;;-139.48;100.00;61774.03;5020666;28;20064;-74
2022/02/11 05:38:50;;;;;;;;;;;;;;;-139.48;100.00;61774.03;5035829;28;20060;-73
2022/02/11 05:41:34;;;;;;;2.80;1.70;;;;;;;-139.48;100.00;61774.03;5020301;28;19979;-72
2022/02/11 05:44:18;;;;;;;2.78;1.15;;;;;;;-139.48;100.00;61774.03;5006730;28;20111;-73
2022/02/11 05:47:01;;;;;;;;;;;;;;;-139.48;100.00;61774.03;5035564;28;20103;-73
2022/02/11 05:49:45;;;;;;;1.30;1.20;;;;;;;-139.48;100.00;61774.03;5006342;28;19967;-73
2022/02/11 05:52:30;;;;;;;4.18;1.45;;;;;;;-139.48;100.00;61774.03;5035271;28;20409;-73
2022/02/11 05:55:14;;;;;;;10.52;1.63;;;;;;;-139.48;100.00;61774.03;5020268;28;20079;-73
2022/02/11 05:57:58;;;;;;;4.78;1.52;;;;;;;-139.48;100.00;61774.03;5035166;28;20057;-73
2022/02/11 06:00:42;;;;;;;2.28;1.73;;;;;;;-139.48;100.00;61774.03;5034970;28;20091;-74
2022/02/11 06:03:26;;;;;;;3.15;1.50;;;;;;;-139.48;100.00;61774.03;5006195;28;20067;-73
2022/02/11 06:06:10;;;;;;;4.40;2.15;;;;;;;-139.48;100.00;61774.03;5020164;28;20146;-73
2022/02/11 06:08:54;;;;;;;2.65;1.70;;;;;;;-139.48;100.00;61774.03;5019728;28;20056;-73
2022/02/11 06:11:38;;;;;;;2.95;2.00;;;;;;;-139.48;100.00;61774.03;5034698;28;20036;-73
2022/02/11 06:14:21;;;;;;;4.63;1.95;;;;;;;-139.48;100.00;61774.03;5019695;28;20435;-74
2022/02/11 06:17:05;;;;;;;;;;;;;;;-139.48;100.00;61774.03;5006459;28;20080;-74
2022/02/11 06:19:50;;;;;;;10.00;2.20;;;;;;;-139.48;100.00;61774.03;5034437;28;19959;-73
2022/02/11 06:22:35;;;;;;;4.07;1.98;;;;;;;-139.48;100.00;61774.03;5034408;28;20112;-73
2022/02/11 06:25:18;;;;;;;4.57;1.92;;;;;;;-139.48;100.00;61774.03;5019612;28;20049;-73
2022/02/11 06:28:03;;;;;;;;;;;;;;;-139.48;100.00;61774.03;5034877;28;20106;-73
2022/02/11 06:30:47;;;;;;;3.20;1.50;;;;;;;-139.48;100.00;61774.03;5005685;28;19970;-73
2022/02/11 06:33:31;;;;;;;;;;;;;;;-139.48;100.00;61774.03;5019584;28;20555;-73
2022/02/11 06:36:14;;;;;;;4.90;1.92;;;;;;;-139.48;100.00;61774.03;5019335;28;20383;-72
2022/02/11 06:38:58;;;;;;;2.40;1.80;;;;;;;-139.48;100.00;61774.03;5034675;28;20047;-71
2022/02/11 06:41:42;;;;;;;;;;;;;;;-139.48;100.00;61774.03;5019848;28;20056;-73
2022/02/11 06:44:26;;;;;;;3.20;2.03;;;;;;;-139.48;100.00;61774.03;5019185;28;20018;-73
2022/02/11 06:47:10;;;;;;;;;;;;;;;-139.48;100.00;61774.03;5034676;28;20056;-72
2022/02/11 06:49:54;;;;;;;4.40;2.13;;;;;;;-139.48;100.00;61774.03;5018952;28;19919;-74
2022/02/11 06:52:38;;;;;;;;;;;;;;;-139.48;100.00;61774.03;5019300;28;20044;-71
2022/02/11 06:55:25;;;;;;;3.05;2.17;;;;;;;-139.48;100.00;61774.03;5019057;28;20308;-73
2022/02/11 06:58:10;;;;;;;6.32;2.22;;;;;;;-139.48;100.00;61774.03;5018950;28;20052;-73
2022/02/11 07:00:55;;;;;;;3.45;2.28;;;;;;;-139.48;100.00;61774.03;5019001;28;20191;-73
2022/02/11 07:03:39;;;;;;;4.03;2.03;;;;;;;-139.48;100.00;61774.03;5019124;28;20538;-74
2022/02/11 07:06:23;;;;;;;4.15;2.35;;;;;;;-139.48;100.00;61774.03;5019111;28;20064;-74
2022/02/11 07:09:07;;;;;;;;;;;;;;;-139.48;100.00;61774.03;5033988;28;20099;-74
2022/02/11 07:11:51;;;;;;;4.35;2.25;;;;;;;-139.48;100.00;61774.03;5033832;28;20004;-74
2022/02/11 07:14:35;;;;;;;5.07;2.30;;;;;;;-139.48;100.00;61774.03;5033542;28;20057;-73
2022/02/11 07:17:19;;;;;;;;;;;;;;;-139.48;100.00;61774.03;5005438;28;20052;-74
2022/02/11 07:20:05;;;;;;;6.83;2.17;;;;;;;-139.48;100.00;61774.03;5033479;28;20003;-74
2022/02/11 07:22:55;;;;;;;4.00;2.45;;;;;;;-139.48;100.00;61774.03;5019082;28;20781;-73
2022/02/11 07:25:40;;;;;;;5.03;2.45;;;;;;;-139.48;100.00;61774.03;5005218;28;20469;-75
2022/02/11 07:28:24;;;;;;;5.93;2.90;;;;;;;-139.48;100.00;61774.03;5018455;28;20064;-75
2022/02/11 07:31:08;;;;;;;8.02;3.25;;;;;;;-139.48;100.00;61774.03;5018594;28;20047;-75
2022/02/11 07:33:51;;;;;;;7.15;3.22;;;;;;;-139.48;100.00;61774.03;5018606;28;20103;-75
2022/02/11 07:36:36;;;;;;;4.10;2.58;;;;;;;-139.48;100.00;61774.03;5018191;28;20067;-75
2022/02/11 07:39:20;;;;;;;9.15;3.03;;;;;;;-139.48;100.00;61774.03;5018312;28;20052;-73
2022/02/11 07:42:04;;;;;;;8.02;2.95;;;;;;;-139.48;100.00;61774.03;5018399;28;20044;-75
2022/02/11 07:44:48;;;;;;;7.35;3.28;;;;;;;-139.48;100.00;61774.03;5033171;28;20098;-75
2022/02/11 07:47:32;;;;;;;;;;;;;;;-139.48;100.00;61774.03;5018671;28;20087;-75
2022/02/11 07:50:16;;;;;;;11.73;3.70;;;;;;;-139.48;100.00;61774.03;5004186;28;20312;-73
2022/02/11 07:53:00;;;;;;;10.07;4.00;;;;;;;-139.48;100.00;61774.03;5033204;28;20762;-75
2022/02/11 07:55:44;;;;;;;6.50;3.65;;;;;;;-139.48;100.00;61774.03;5033302;28;20044;-73
2022/02/11 07:58:28;;;;;;;9.40;4.55;;;;;;;-139.48;100.00;61774.03;5033577;28;20048;-73
2022/02/11 08:01:14;;;;;;;7.70;3.90;;;;;;;-139.48;100.00;61774.03;5012365;28;20456;-72
2022/02/11 08:03:58;;;;;;;7.18;3.85;;;;;;;-139.48;100.00;61774.03;5025452;28;20045;-73
2022/02/11 08:06:42;;;;;;;12.50;4.72;;;;;;;-139.48;100.00;61774.03;5040303;28;20060;-73
2022/02/11 08:09:26;;;;;;;12.15;4.40;;;;;;;-139.48;100.00;61774.03;5025414;28;20049;-75
2022/02/11 08:12:11;;;;;;;;;;;;;;;-139.48;100.00;61774.03;5022140;28;20096;-75
2022/02/11 08:14:55;;;;;;;8.20;4.85;;;;;;;-139.48;100.00;61774.03;5018005;28;20005;-77
2022/02/11 08:17:41;;;;;;;;;;;;;;;-139.48;100.00;61774.03;5033692;28;20129;-76
2022/02/11 08:20:25;;;;;;;10.75;4.47;;;;;;;-139.48;100.00;61774.03;5018173;28;19919;-75
2022/02/11 08:23:10;;;;;;;10.32;3.88;;;;;;;-139.48;100.00;61774.03;5032780;28;20064;-76
2022/02/11 08:25:53;;;;;;;11.65;4.85;;;;;;;-139.48;100.00;61774.03;5017512;28;20056;-76
2022/02/11 08:28:37;;;;;;;;;;;;;;;-139.48;100.00;61774.03;5033409;28;20048;-75
2022/02/11 08:31:22;;;;;;;11.32;4.82;;;;;;;-139.48;100.00;61774.03;5017733;28;19952;-75
2022/02/11 08:34:06;;;;;;;8.98;5.20;;;;;;;-139.48;100.00;61774.03;5017726;28;20088;-76
2022/02/11 08:36:50;;;;;;;9.73;4.60;;;;;;;-139.48;100.00;61774.03;5017751;28;20057;-75
2022/02/11 08:39:38;;;;;;;9.23;5.07;;;;;;;-139.48;100.00;61774.03;5018012;28;20051;-77
2022/02/11 08:42:22;;;;;;;7.57;4.80;;;;;;;-139.48;100.00;61774.03;5018269;28;20045;-77
2022/02/11 08:45:07;;;;;;;12.88;5.30;;;;;;;-139.48;100.00;61774.03;5017534;28;20468;-76
2022/02/11 08:47:52;;;;;;;9.88;4.55;;;;;;;-139.48;100.00;61774.03;5018061;28;20584;-77
2022/02/11 08:50:36;;;;;;;8.45;5.22;;;;;;;-139.48;100.00;61774.03;5017803;28;20064;-76
2022/02/11 08:53:22;;;;;;;10.57;5.38;;;;;;;-139.48;100.00;61774.03;5017672;28;20065;-76
2022/02/11 08:56:07;;;;;;;12.60;5.15;;;;;;;-139.48;100.00;61774.03;5019105;28;20052;-76
2022/02/11 08:58:51;;;;;;;11.63;5.57;;;;;;;-139.48;100.00;61774.03;5036056;28;20049;-76
2022/02/11 09:01:35;;;;;;;8.77;4.97;;;;;;;-139.48;100.00;61774.03;5036358;28;20052;-76
2022/02/11 09:04:19;;;;;;;14.88;6.03;;;;;;;-139.48;100.00;61774.03;5021215;28;20496;-76
2022/02/11 09:07:03;;;;;;;12.50;5.82;;;;;;;-139.48;100.00;61774.03;5035939;28;20049;-76
2022/02/11 09:09:47;;;;;;;;;;;;;;;-139.48;100.00;61774.03;5021099;28;20052;-77
2022/02/11 09:12:31;;;;;;;13.52;6.13;;;;;;;-139.48;100.00;61774.03;5006984;28;19940;-76
2022/02/11 09:15:15;;;;;;;12.82;5.95;;;;;;;-139.48;100.00;61774.03;5021038;28;20049;-76
2022/02/11 09:17:59;;;;;;;12.00;5.80;;;;;;;-139.48;100.00;61774.03;5020732;28;20417;-76
2022/02/11 09:20:43;;;;;;;;;;;;;;;-139.48;100.00;61774.03;5021315;28;20084;-76
2022/02/11 09:23:27;;;;;;;14.77;6.67;;;;;;;-139.48;100.00;61774.03;5020824;28;19928;-76
2022/02/11 09:26:11;;;;;;;;;;;;;;;-139.48;100.00;61774.03;5021136;28;20076;-76
2022/02/11 09:28:55;;;;;;;15.13;6.70;;;;;;;-139.48;100.00;61774.03;5035508;28;20003;-76
2022/02/11 09:31:39;;;;;;;13.27;6.03;;;;;;;-139.48;100.00;61774.03;5006824;28;20504;-76
2022/02/11 09:34:23;;;;;;;12.85;5.88;;;;;;;-139.48;100.00;61774.03;5035742;28;20048;-77
2022/02/11 09:37:07;;;;;;;;;;;;;;;-139.48;100.00;61774.03;5007074;28;20072;-77
2022/02/11 09:39:51;;;;;;;10.85;5.55;;;;;;;-139.48;100.00;61774.03;5020414;28;20288;-76
2022/02/11 09:42:36;;;;;;;9.52;4.95;;;;;;;-139.48;100.00;61774.03;5020497;28;20052;-76
2022/02/11 09:45:21;;;;;;;7.82;4.65;;;;;;;-139.48;100.00;61774.03;5020321;28;20137;-76
2022/02/11 09:48:06;;;;;;;11.30;5.18;;;;;;;-139.48;100.00;61774.03;5035770;28;20056;-76
2022/02/11 09:50:53;;;;;;;11.77;5.10;;;;;;;-139.48;100.00;61774.03;5020250;28;20504;-77
2022/02/11 09:53:37;;;;;;;8.23;5.03;;;;;;;-139.48;100.00;61774.03;5020411;28;20064;-77
2022/02/11 09:56:21;;;;;;;;;;;;;;;-139.48;100.00;61774.03;5020584;28;20052;-76
2022/02/11 09:59:05;;;;;;;16.43;5.53;;;;;;;-139.48;100.00;61774.03;5020067;28;20007;-77
2022/02/11 10:01:50;;;;;;;12.32;5.53;;;;;;;-139.48;100.00;61774.03;5006193;28;20843;-76
2022/02/11 10:04:34;;;;;;;11.85;5.30;;;;;;;-139.48;100.00;61774.03;5019920;28;20075;-76
2022/02/11 10:07:17;;;;;;;11.90;5.68;;;;;;;-139.48;100.00;61774.03;5019548;28;20146;-76
2022/02/11 10:10:01;;;;;;;;;;;;;;;-139.48;100.00;61774.03;5045907;22;20099;-77
2022/02/11 10:12:45;;;;;;;10.52;5.20;;;;;;;-139.48;100.00;61774.03;5033845;28;19970;-77
2022/02/11 10:15:29;;;;;;;9.80;5.53;;;;;;;-139.48;100.00;61774.03;5034911;28;20052;-76
2022/02/11 10:18:13;;;;;;;9.73;5.35;;;;;;;-139.48;100.00;61774.03;5035096;28;20071;-75
2022/02/11 10:21:00;;;;;;;13.20;5.90;;;;;;;-139.48;100.00;61774.03;4999901;28;20049;-76
2022/02/11 10:23:44;;;;;;;10.32;4.75;;;;;;;-139.48;100.00;61774.03;5000049;28;20037;-75
2022/02/11 10:26:28;;;;;;;10.88;4.75;;;;;;;-139.48;100.00;61774.03;5014817;28;20107;-76
2022/02/11 10:29:14;;;;;;;;;;;;;;;-139.48;100.00;61774.03;5014922;28;20053;-76
2022/02/11 10:31:59;;;;;;;13.52;4.72;;;;;;;-139.48;100.00;61774.03;5013606;28;20019;-74
2022/02/11 10:34:51;;;;;;;7.90;4.60;;;;;;;-139.48;100.00;61774.03;4999804;28;20129;-72
2022/02/11 10:37:35;;;;;;;11.88;5.53;;;;;;;-139.48;100.00;61774.03;5014546;28;20060;-70
2022/02/11 10:40:29;;;;;;;7.82;4.78;;;;;;;-139.48;100.00;61774.03;5013380;28;20057;-72
2022/02/11 10:43:19;;;;;;;;;;;;;;;-139.48;100.00;61774.03;4999987;28;20064;-73
2022/02/11 10:46:04;;;;;;;19.15;5.40;;;;;;;-139.48;100.00;61774.03;5013174;28;19928;-69
2022/02/11 10:48:48;;;;;;;9.52;4.82;;;;;;;-139.48;100.00;61774.03;5013164;28;20052;-71
2022/02/11 10:51:32;;;;;;;7.95;4.30;;;;;;;-139.48;100.00;61774.03;5013312;28;20120;-72
2022/02/11 10:54:26;;;;;;;;;;;;;;;-139.48;100.00;61774.03;5014511;28;20099;-72
2022/02/11 10:57:13;;;;;;;10.93;4.10;;;;;;;-139.48;100.00;61774.03;5014188;28;20324;-72
2022/02/11 10:59:58;;;;;;;12.57;4.43;;;;;;;-139.48;100.00;61774.03;4985487;28;20100;-72
2022/02/11 11:02:42;;;;;;;10.27;4.50;;;;;;;-139.48;100.00;61774.03;4999121;28;20092;-71
2022/02/11 11:05:26;;;;;;;;;;;;;;;-139.48;100.00;61774.03;5013290;28;20092;-71
2022/02/11 11:08:12;;;;;;;6.67;3.67;;;;;;;-139.48;100.00;61774.03;5012811;28;19925;-71
2022/02/11 11:10:59;;;;;;;9.27;4.35;;;;;;;-139.48;100.00;61774.03;5012375;28;20315;-72
2022/02/11 11:13:48;;;;;;;9.65;4.70;;;;;;;-139.48;100.00;61774.03;5013636;28;20123;-71
2022/02/11 11:16:33;;;;;;;13.43;4.50;;;;;;;-139.48;100.00;61774.03;5013703;28;20512;-71
2022/02/11 11:19:17;;;;;;;9.50;4.20;;;;;;;-139.48;100.00;61774.03;4998107;28;20076;-72
2022/02/11 11:22:16;;;;;;;14.75;4.57;;;;;;;-139.48;100.00;61774.03;4998620;28;20119;-72
2022/02/11 11:25:05;;;;;;;14.07;4.35;;;;;;;-139.48;100.00;61774.03;5000767;28;20040;-72
2022/02/11 11:27:52;;;;;;;9.20;4.05;;;;;;;-139.48;100.00;61774.03;5012628;28;20155;-70
2022/02/11 11:30:38;;;;;;;12.27;4.10;;;;;;;-139.48;100.00;61774.03;5012262;28;20048;-72
2022/02/11 11:33:22;;;;;;;8.35;4.38;;;;;;;-139.48;100.00;61774.03;5013342;28;20041;-71
2022/02/11 11:36:08;;;;;;;14.20;4.93;;;;;;;-139.48;100.00;61774.03;5013522;28;20528;-70
2022/02/11 11:38:59;;;;;;;10.02;4.25;;;;;;;-139.48;100.00;61774.03;4998525;28;20049;-72
2022/02/11 11:41:42;;;;;;;6.82;4.25;;;;;;;-139.48;100.00;61774.03;4998102;28;20438;-71
2022/02/11 11:44:26;;;;;;;9.32;4.38;;;;;;;-139.48;100.00;61774.03;5013347;28;20061;-70
2022/02/11 11:47:27;;;;;;;7.97;4.32;;;;;;;-139.48;100.00;61774.03;5013084;28;20405;-72
2022/02/11 11:50:18;;;;;;;6.03;4.10;;;;;;;-139.48;100.00;61774.03;4998460;28;20405;-72
2022/02/11 11:53:22;;;;;;;11.77;4.35;;;;;;;-139.48;100.00;61774.03;4998155;28;20076;-73
2022/02/11 11:56:32;;;;;;;7.38;3.70;;;;;;;-139.48;100.00;61774.03;5013157;28;20048;-72
2022/02/11 11:59:20;;;;;;;10.65;4.50;;;;;;;-139.48;100.00;61774.03;5013312;28;20125;-71
2022/02/11 12:02:24;;;;;;;9.23;4.75;;;;;;;-139.48;100.00;61774.03;4997898;28;20057;-72
2022/02/11 12:05:08;;;;;;;11.68;5.13;;;;;;;-139.48;100.00;61774.03;5011781;28;20052;-72
2022/02/11 12:07:52;;;;;;;11.82;5.40;;;;;;;-139.48;100.00;61774.03;5012781;28;20099;-71
2022/02/11 12:10:36;;;;;;;9.25;4.13;;;;;;;-139.48;100.00;61774.03;5011788;28;20053;-72
2022/02/11 12:13:20;;;;;;;;;;;;;;;-139.48;100.00;61774.03;5012371;28;20049;-72
2022/02/11 12:16:05;;;;;;;10.35;4.43;;;;;;;-139.48;100.00;61774.03;5012868;28;19921;-71
2022/02/11 12:18:50;;;;;;;12.20;4.70;;;;;;;-139.48;100.00;61774.03;5011675;28;20409;-72
2022/02/11 12:21:34;;;;;;;6.88;4.25;;;;;;;-139.48;100.00;61774.03;5012614;28;20125;-71
2022/02/11 12:27:33;;;;;;;9.52;4.63;;;;;;;-139.48;100.00;61774.03;5011999;28;20417;-71
2022/02/11 12:30:22;;;;;;;8.65;4.57;;;;;;;-139.48;100.00;61774.03;5013712;28;20048;-70
2022/02/11 12:33:05;;;;;;;9.02;4.47;;;;;;;-139.48;100.00;61774.03;5002117;28;20096;-71
2022/02/11 12:35:51;;;;;;;7.30;4.47;;;;;;;-139.48;100.00;61774.03;5016530;28;20048;-71
2022/02/11 12:38:36;;;;;;;9.20;4.30;;;;;;;-139.48;100.00;61774.03;5016786;28;20049;-73
2022/02/11 12:41:20;;;;;;;9.82;4.95;;;;;;;-139.48;100.00;61774.03;5001627;28;20100;-72
2022/02/11 12:44:04;;;;;;;9.60;5.13;;;;;;;-139.48;100.00;61774.03;5015668;28;20091;-71
2022/02/11 12:46:50;;;;;;;8.57;4.50;;;;;;;-139.48;100.00;61774.03;5015315;28;20549;-72
2022/02/11 12:49:43;;;;;;;12.23;5.38;;;;;;;-139.48;100.00;61774.03;5015380;28;20053;-72
2022/02/11 12:52:29;;;;;;;9.68;4.82;;;;;;;-139.48;100.00;61774.03;5016303;28;20100;-72
2022/02/11 12:55:16;;;;;;;9.95;5.38;;;;;;;-139.48;100.00;61774.03;5015425;28;20142;-72
2022/02/11 12:58:01;;;;;;;6.63;4.28;;;;;;;-139.48;100.00;61774.03;5016059;28;20123;-72
2022/02/11 13:00:49;;;;;;;7.82;4.47;;;;;;;-139.48;100.00;61774.03;5015043;28;20064;-72
2022/02/11 13:03:33;;;;;;;10.48;5.68;;;;;;;-139.48;100.00;61774.03;5015998;28;20104;-70
2022/02/11 13:06:20;;;;;;;6.38;3.88;;;;;;;-139.48;100.00;61774.03;5014843;28;20056;-69
2022/02/11 13:09:06;;;;;;;11.23;4.82;;;;;;;-139.48;100.00;61774.03;5014909;28;20552;-72
2022/02/11 13:11:56;;;;;;;11.63;4.75;;;;;;;-139.48;100.00;61774.03;4987426;28;20636;-70
2022/02/11 13:14:43;;;;;;;7.95;4.07;;;;;;;-139.48;100.00;61774.03;5014981;28;20049;-73
2022/02/11 13:17:29;;;;;;;7.10;3.10;;;;;;;-139.48;100.00;61774.03;5015138;28;20137;-71
2022/02/11 13:20:19;;;;;;;4.60;2.60;;;;;;;-139.48;100.00;61774.03;5015733;28;20049;-69
2022/02/11 13:23:04;;;;;;;8.88;2.63;;;;;;;-139.48;100.00;61774.03;5014963;28;20127;-72
2022/02/11 13:25:50;;;;;;;9.65;2.85;;;;;;;-139.48;100.00;61774.03;5000875;28;20064;-72
2022/02/11 13:28:43;;;;;;;6.55;2.35;;;;;;;-139.48;100.00;61774.03;5015829;28;20044;-72
2022/02/11 13:31:44;;;;;;;6.78;2.50;;;;;;;-139.48;100.00;61774.03;5000973;28;20211;-72
2022/02/11 13:34:28;;;;;;;5.70;2.35;;;;;;;-139.48;100.00;61774.03;5015470;28;20053;-72
2022/02/11 13:37:12;;;;;;;6.03;2.20;;;;;;;-139.48;100.00;61774.03;5015535;28;20056;-72
2022/02/11 13:39:56;;;;;;;2.58;1.83;;;;;;;-139.48;100.00;61774.03;5014351;28;20061;-72
2022/02/11 13:42:40;;;;;;;9.57;2.30;;;;;;;-139.48;100.00;61774.03;5013756;28;20100;-70
2022/02/11 13:45:25;;;;;;;6.05;2.15;;;;;;;-139.48;100.00;61774.03;5014405;28;20049;-70
2022/02/11 13:48:09;;;;;;;7.78;2.47;;;;;;;-139.48;100.00;61774.03;5014100;28;20095;-72
2022/02/11 13:51:12;;;;;;;6.38;2.30;;;;;;;-139.48;100.00;61774.03;5015675;28;20076;-72
2022/02/11 13:53:55;;;;;;;11.43;2.42;;;;;;;-139.48;100.00;61774.03;5015422;28;20521;-72
2022/02/11 13:56:42;;;;;;;8.45;2.50;;;;;;;-139.48;100.00;61774.03;5015789;28;20071;-72
2022/02/11 13:59:29;;;;;;;6.30;2.47;;;;;;;-139.48;100.00;61774.03;5000299;28;20080;-72
2022/02/11 14:02:14;;;;;;;6.05;2.10;;;;;;;-139.48;100.00;61774.03;5000652;28;20049;-72
2022/02/11 14:05:06;;;;;;;6.90;2.20;;;;;;;-139.48;100.00;61774.03;5015413;28;20480;-72
2022/02/11 14:07:54;;;;;;;8.18;2.40;;;;;;;-139.48;100.00;61774.03;5000364;28;20092;-72
2022/02/11 14:10:38;;;;;;;5.07;2.10;;;;;;;-139.48;100.00;61774.03;4986087;28;20056;-72
2022/02/11 14:13:22;;;;;;;7.63;3.00;;;;;;;-139.48;100.00;61774.03;5013941;28;20048;-72
2022/02/11 14:16:05;;;;;;;6.50;2.30;;;;;;;-139.48;100.00;61774.03;5014849;28;20136;-72
2022/02/11 14:18:49;;;;;;;8.73;3.00;;;;;;;-139.48;100.00;61774.03;4999934;28;20088;-72
2022/02/11 14:21:33;;;;;;;5.97;2.58;;;;;;;-139.48;100.00;61774.03;5014896;28;20052;-72
2022/02/11 14:24:19;;;;;;;4.82;2.83;;;;;;;-139.48;100.00;61774.03;5000211;28;20433;-72
2022/02/11 14:27:06;;;;;;;6.07;3.03;;;;;;;-139.48;100.00;61774.03;5000215;28;20508;-70
2022/02/11 14:29:50;;;;;;;8.23;3.22;;;;;;;-139.48;100.00;61774.03;5013740;28;20056;-72
2022/02/11 14:32:34;;;;;;;9.60;3.05;;;;;;;-139.48;100.00;61774.03;5013556;28;20076;-70
2022/02/11 14:35:18;;;;;;;9.57;3.33;;;;;;;-139.48;100.00;61774.03;5013580;28;20053;-72
2022/02/11 14:38:02;;;;;;;5.60;2.83;;;;;;;-139.48;100.00;61774.03;5013894;28;20441;-72
2022/02/11 14:43:49;;;;;;;5.45;3.15;;;;;;;-139.48;100.00;61774.03;5013343;28;20049;-72
2022/02/11 14:46:33;;;;;;;7.72;2.70;;;;;;;-139.48;100.00;61774.03;5014665;28;20052;-72
2022/02/11 14:49:18;;;;;;;11.77;3.42;;;;;;;-139.48;100.00;61774.03;4999332;28;20099;-72
2022/02/11 14:52:06;;;;;;;4.32;2.80;;;;;;;-139.48;100.00;61774.03;4999376;28;20133;-70
2022/02/11 14:54:51;;;;;;;7.60;2.97;;;;;;;-139.48;100.00;61774.03;5012108;28;20136;-72
2022/02/11 14:57:35;;;;;;;7.20;2.75;;;;;;;-139.48;100.00;61774.03;5014223;28;20520;-72
2022/02/11 15:00:19;;;;;;;6.38;2.97;;;;;;;-139.48;100.00;61774.03;5012872;28;20096;-72
2022/02/11 15:03:03;;;;;;;6.65;2.75;;;;;;;-139.48;100.00;61774.03;5013853;28;20501;-73
2022/02/11 15:05:46;;;;;;;7.40;2.65;;;;;;;-139.48;100.00;61774.03;5013870;28;20053;-72
2022/02/11 15:08:30;;;;;;;7.15;2.40;;;;;;;-139.48;100.00;61774.03;5012891;28;20052;-73
2022/02/11 15:11:14;;;;;;;;;;;;;;;-139.48;100.00;61774.03;5012911;28;20048;-72
2022/02/11 15:13:58;;;;;;;6.80;2.20;;;;;;;-139.48;100.00;61774.03;4998819;28;19924;-73
2022/02/11 15:16:42;;;;;;;8.10;3.13;;;;;;;-139.48;100.00;61774.03;5012781;28;20111;-73
2022/02/11 15:19:26;;;;;;;5.65;2.28;;;;;;;-139.48;100.00;61774.03;5012637;28;20048;-72
2022/02/11 15:22:12;;;;;;;;;;;;;;;-139.48;100.00;61774.03;5013827;28;20099;-72
2022/02/11 15:24:57;;;;;;;11.90;2.67;;;;;;;-139.48;100.00;61774.03;5013762;28;20072;-72
2022/02/11 15:27:41;;;;;;;8.35;2.72;;;;;;;-139.48;100.00;61774.03;5012523;28;20053;-72
2022/02/11 15:30:25;;;;;;;6.90;2.35;;;;;;;-139.48;100.00;61774.03;5012338;28;20096;-72
2022/02/11 15:33:09;;;;;;;7.13;2.60;;;;;;;-139.48;100.00;61774.03;5012567;28;20461;-72
2022/02/11 15:35:52;;;;;;;6.78;2.58;;;;;;;-139.48;100.00;61774.03;5013599;28;20469;-72
2022/02/11 15:38:36;;;;;;;7.43;2.55;;;;;;;-139.48;100.00;61774.03;4998390;28;20103;-72
2022/02/11 15:41:20;;;;;;;6.18;2.50;;;;;;;-139.48;100.00;61774.03;5012275;28;20472;-71
2022/02/11 15:44:05;;;;;;;7.03;2.40;;;;;;;-139.48;100.00;61774.03;5012326;28;20045;-72
2022/02/11 15:46:48;;;;;;;5.70;2.42;;;;;;;-139.48;100.00;61774.03;5013297;28;20044;-72
2022/02/11 15:49:32;;;;;;;11.52;2.42;;;;;;;-139.48;100.00;61774.03;4998300;28;20185;-72
2022/02/11 15:52:16;;;;;;;6.07;2.42;;;;;;;-139.48;100.00;61774.03;5013564;28;20520;-73
2022/02/11 15:55:00;;;;;;;;;;;;;;;-139.48;100.00;61774.03;5012672;28;20065;-73
2022/02/11 15:57:44;;;;;;;7.47;2.23;;;;;;;-139.48;100.00;61774.03;5012080;28;19920;-73
2022/02/11 16:00:28;;;;;;;;;;;;;;;-139.48;100.00;61774.03;5012491;28;20057;-73
2022/02/11 16:03:12;;;;;;;5.18;2.58;;;;;;;-139.48;100.00;61774.03;5013053;28;19975;-72
2022/02/11 16:05:56;;;;;;;6.82;2.83;;;;;;;-139.48;100.00;61774.03;5011586;28;20045;-73
2022/02/11 16:08:40;;;;;;;6.75;2.72;;;;;;;-139.48;100.00;61774.03;4998319;28;20048;-73
2022/02/11 16:11:24;;;;;;;6.72;2.83;;;;;;;-139.48;100.00;61774.03;5011941;28;20417;-72
2022/02/11 16:14:10;;;;;;;6.10;2.53;;;;;;;-139.48;100.00;61774.03;5012465;28;20068;-70
2022/02/11 16:16:54;;;;;;;7.70;3.28;;;;;;;-139.48;100.00;61774.03;5013226;28;20056;-72
2022/02/11 16:19:38;;;;;;;8.63;3.70;;;;;;;-139.48;100.00;61774.03;5011475;28;20449;-71
2022/02/11 16:22:26;;;;;;;9.32;4.90;;;;;;;-139.48;100.00;61774.03;5011747;28;20052;-72
2022/02/11 16:25:10;;;;;;;9.23;3.65;;;;;;;-139.48;100.00;61774.03;5036620;22;20405;-74
2022/02/11 16:27:54;;;;;;;;;;;;;;;-139.48;100.00;61774.03;5013277;28;20141;-74
2022/02/11 16:30:39;;;;;;;5.30;2.50;;;;;;;-139.48;100.00;61774.03;5011970;28;19920;-74
2022/02/11 16:33:23;;;;;;;10.65;2.88;;;;;;;-139.48;100.00;61774.03;5013171;28;20460;-74
2022/02/11 16:36:07;;;;;;;;;;;;;;;-139.48;100.00;61774.03;4998896;28;20477;-74
2022/02/11 16:38:51;;;;;;;8.40;2.25;;;;;;;-139.48;100.00;61774.03;5012923;28;19983;-75